Lakeland, Florida
Current Conditions -  °F | °C
As of 4:53 PM on Tuesday 25 Nov 2014 (Local Time) from KLAL Reporting Station
Overcast Overcast  
Wind Chill: 26°   Ceiling: 900
Heat Index: 28°   Visibility: 7mi
Dew Point: 23°   Wind: 5mph
Humidity: 83%   Direction: 250°WSW
Pressure: 29.9"   Gusts: NA
Location:  28.04°N, 81.95°W
Report Text: KLAL 252153Z 25004KT 7SM BKN009 OVC080 26/23 A2990
Loading
Personal Weather Stations






























Interactive Weather Map New forecast layout! Learn more

10-Day Weather Forecast

Advertisements
Track Severe Weather on mobile